Time;durP1;ratioP1;P1;durP2;ratioP2;P2;SDS_P1;SDS_P2;PMS_P1;PMS_P2;Temp;Humidity;BMP_temperature;BMP_pressure;BME280_temperature;BME280_humidity;BME280_pressure;Samples;Min_cycle;Max_cycle;Signal;HPM_P1;HPM_P2
2021/04/20 00:00:04;;;;;;;12.40;11.10;;;;;;;15.65;54.02;100787.80;1805455;78;21293;-47
2021/04/20 00:02:32;;;;;;;12.78;10.82;;;;;;;15.65;54.06;100789.11;1734973;81;21185;-47
2021/04/20 00:05:00;;;;;;;11.73;10.50;;;;;;;15.65;54.10;100786.94;1753144;80;21168;-47
2021/04/20 00:07:29;;;;;;;14.63;12.37;;;;;;;15.65;54.19;100791.73;1837025;77;21580;-48
2021/04/20 00:09:57;;;;;;;12.63;11.33;;;;;;;15.62;54.33;100781.36;1827120;77;21151;-47
2021/04/20 00:12:25;;;;;;;13.83;10.45;;;;;;;15.62;54.48;100790.53;1828017;77;21593;-47
2021/04/20 00:14:53;;;;;;;13.43;11.28;;;;;;;15.60;54.70;100777.12;1830184;77;21360;-48
2021/04/20 00:17:21;;;;;;;12.55;10.23;;;;;;;15.58;54.75;100775.84;1818248;77;21137;-47
2021/04/20 00:19:50;;;;;;;13.18;11.22;;;;;;;15.58;54.86;100775.02;1833325;77;21755;-47
2021/04/20 00:22:19;;;;;;;12.30;11.00;;;;;;;15.56;54.99;100771.12;1834856;77;21151;-48
2021/04/20 00:24:47;;;;;;;12.63;11.33;;;;;;;15.55;55.05;100763.33;1817782;77;21171;-47
2021/04/20 00:27:15;;;;;;;13.48;12.00;;;;;;;15.52;55.06;100761.68;1762125;80;21613;-47
2021/04/20 00:29:43;;;;;;;16.82;12.03;;;;;;;15.51;55.09;100757.37;1816030;77;21124;-48
2021/04/20 00:32:12;;;;;;;12.90;11.22;;;;;;;15.50;55.10;100755.65;1797717;78;21171;-47
2021/04/20 00:34:40;;;;;;;13.35;11.57;;;;;;;15.48;55.09;100750.92;1759475;80;21298;-47
2021/04/20 00:37:08;;;;;;;12.10;10.88;;;;;;;15.45;55.15;100751.93;1770280;78;21255;-47
2021/04/20 00:39:36;;;;;;;13.13;11.75;;;;;;;15.45;55.15;100749.76;1782053;78;21220;-47
2021/04/20 00:42:07;;;;;;;15.88;11.60;;;;;;;15.45;55.09;100745.83;1784554;78;21289;-47
2021/04/20 00:44:35;;;;;;;13.37;11.97;;;;;;;15.46;55.04;100747.52;1742440;80;21112;-47
2021/04/20 00:47:05;;;;;;;13.38;11.48;;;;;;;15.46;55.13;100744.89;1736578;80;21187;-47
2021/04/20 00:49:33;;;;;;;13.78;12.10;;;;;;;15.43;55.25;100741.94;1736888;80;21196;-48
2021/04/20 00:52:01;;;;;;;14.73;12.85;;;;;;;15.39;55.53;100742.12;1758075;81;21767;-48
2021/04/20 00:54:29;;;;;;;14.65;13.13;;;;;;;15.37;55.78;100737.39;1740045;80;21133;-48
2021/04/20 00:56:57;;;;;;;12.55;11.40;;;;;;;15.35;56.03;100730.05;1715108;81;21553;-47
2021/04/20 00:59:26;;;;;;;14.40;12.13;;;;;;;15.33;56.12;100727.95;1749795;80;21652;-48
2021/04/20 01:01:54;;;;;;;16.57;12.73;;;;;;;15.31;56.39;100728.47;1739573;80;21179;-48
2021/04/20 01:04:22;;;;;;;14.40;11.97;;;;;;;15.28;56.81;100722.03;1721636;80;21644;-47
2021/04/20 01:06:52;;;;;;;16.70;12.75;;;;;;;15.24;57.11;100725.70;1719400;80;21260;-47
2021/04/20 01:09:20;;;;;;;15.38;12.75;;;;;;;15.20;57.46;100731.98;1710889;80;21252;-47
2021/04/20 01:11:48;;;;;;;16.75;14.13;;;;;;;15.18;57.61;100730.75;1713492;82;21427;-48
2021/04/20 01:14:16;;;;;;;15.00;12.78;;;;;;;15.18;57.82;100729.44;1701636;83;21250;-48
2021/04/20 01:16:43;;;;;;;14.70;13.20;;;;;;;15.16;58.02;100731.27;1688754;83;21220;-48
2021/04/20 01:19:14;;;;;;;14.70;12.58;;;;;;;15.17;58.06;100726.41;1737897;81;21172;-48
2021/04/20 01:21:43;;;;;;;16.62;13.25;;;;;;;15.19;58.17;100728.95;1736785;82;21547;-47
2021/04/20 01:24:16;;;;;;;16.20;12.95;;;;;;;15.17;58.32;100725.54;1741035;80;21141;-47
2021/04/20 01:26:46;;;;;;;14.13;12.60;;;;;;;15.17;58.52;100724.23;1727529;81;21228;-48
2021/04/20 01:29:14;;;;;;;13.98;12.35;;;;;;;15.15;58.57;100722.99;1749422;80;21155;-48
2021/04/20 01:31:44;;;;;;;14.15;12.07;;;;;;;15.12;58.66;100723.13;1722364;80;21326;-48
2021/04/20 01:34:13;;;;;;;15.60;12.30;;;;;;;15.09;58.93;100722.38;1737961;79;21204;-47
2021/04/20 01:36:41;;;;;;;15.93;12.58;;;;;;;15.06;59.17;100725.14;1719953;80;21176;-48
2021/04/20 01:39:11;;;;;;;16.77;13.60;;;;;;;15.04;59.29;100712.11;1751282;80;21346;-47
2021/04/20 01:41:39;;;;;;;14.83;13.10;;;;;;;15.00;59.22;100715.73;1763939;79;21226;-48
2021/04/20 01:44:07;;;;;;;13.93;11.53;;;;;;;14.97;59.43;100711.09;1757211;80;21335;-48
2021/04/20 01:46:36;;;;;;;16.80;13.28;;;;;;;14.94;59.45;100704.68;1812307;77;21215;-48
2021/04/20 01:49:04;;;;;;;13.48;11.63;;;;;;;14.91;59.56;100706.09;1758784;80;21170;-48
2021/04/20 01:51:34;;;;;;;15.00;12.85;;;;;;;14.88;59.85;100706.23;1781138;79;21540;-48
2021/04/20 01:54:04;;;;;;;13.88;12.23;;;;;;;14.88;59.97;100701.00;1738167;79;21176;-47
2021/04/20 01:56:31;;;;;;;15.68;13.20;;;;;;;14.89;60.02;100700.06;1812618;77;21140;-47
2021/04/20 01:59:01;;;;;;;15.18;12.20;;;;;;;14.91;60.09;100689.06;1761188;78;21329;-48
2021/04/20 02:01:30;;;;;;;13.62;12.23;;;;;;;14.90;60.10;100695.23;1828527;77;21582;-47
2021/04/20 02:03:57;;;;;;;14.78;12.25;;;;;;;14.90;60.08;100692.62;1833017;77;21167;-48
2021/04/20 02:06:25;;;;;;;15.53;12.30;;;;;;;14.84;60.16;100691.56;1763138;80;21538;-48
2021/04/20 02:08:54;;;;;;;16.48;13.20;;;;;;;14.80;60.25;100692.11;1810982;78;21129;-48
2021/04/20 02:11:23;;;;;;;14.15;12.70;;;;;;;14.79;60.35;100686.95;1787543;79;21160;-48
2021/04/20 02:13:52;;;;;;;13.88;11.15;;;;;;;14.78;60.30;100683.91;1758098;80;21176;-48
2021/04/20 02:16:20;;;;;;;18.75;12.47;;;;;;;14.75;60.41;100677.50;1770472;79;21176;-48
2021/04/20 02:18:53;;;;;;;14.90;12.98;;;;;;;14.75;60.56;100680.13;1830296;77;21637;-48
2021/04/20 02:21:21;;;;;;;13.28;11.40;;;;;;;14.73;60.63;100675.41;1756348;80;21199;-48
2021/04/20 02:23:49;;;;;;;14.87;12.65;;;;;;;14.69;60.55;100667.66;1751025;79;21820;-49
2021/04/20 02:26:29;;;;;;;14.87;12.25;;;;;;;14.67;60.76;100660.31;1736556;80;21163;-48
2021/04/20 02:29:05;;;;;;;14.20;12.30;;;;;;;14.41;61.52;100657.87;1771423;79;22887;-48
2021/04/20 02:31:38;;;;;;;13.90;11.85;;;;;;;14.14;62.32;100651.05;1740349;82;21113;-48
2021/04/20 02:34:07;;;;;;;12.55;11.28;;;;;;;14.07;62.76;100647.42;1707206;82;21592;-48
2021/04/20 02:36:40;;;;;;;15.43;12.33;;;;;;;14.05;62.97;100646.18;1742298;82;21173;-49
2021/04/20 02:39:08;;;;;;;14.65;12.50;;;;;;;14.04;63.11;100640.98;1734499;82;21109;-48
2021/04/20 02:41:41;;;;;;;15.43;12.75;;;;;;;14.00;63.22;100641.56;1739676;82;21190;-49
2021/04/20 02:44:09;;;;;;;14.98;12.43;;;;;;;13.97;63.44;100640.38;1733886;82;21148;-49
2021/04/20 02:46:42;;;;;;;15.98;12.20;;;;;;;13.95;63.59;100638.73;1744891;82;21568;-48
2021/04/20 02:49:11;;;;;;;14.20;12.05;;;;;;;13.93;63.75;100644.47;1738283;82;21259;-47
2021/04/20 02:51:39;;;;;;;13.62;11.25;;;;;;;13.91;63.90;100635.34;1733435;82;21180;-47
2021/04/20 02:54:08;;;;;;;14.38;11.88;;;;;;;13.90;63.96;100638.89;1749926;82;22007;-47
2021/04/20 02:56:36;;;;;;;13.98;12.10;;;;;;;13.89;63.98;100642.41;1738445;82;21199;-47
2021/04/20 02:59:07;;;;;;;15.08;12.95;;;;;;;13.89;64.12;100639.78;1724388;82;21557;-47
2021/04/20 03:01:37;;;;;;;14.13;11.73;;;;;;;13.86;64.22;100644.70;1741088;82;21192;-47
2021/04/20 03:04:05;;;;;;;14.85;11.97;;;;;;;13.87;64.50;100638.98;1734126;82;21160;-47
2021/04/20 03:06:33;;;;;;;12.90;10.82;;;;;;;13.88;64.54;100638.09;1714445;83;21196;-47
2021/04/20 03:09:02;;;;;;;13.13;11.80;;;;;;;13.87;64.60;100639.84;1708772;83;21321;-47
2021/04/20 03:11:36;;;;;;;13.10;11.65;;;;;;;13.88;64.62;100637.65;1708198;83;21167;-47
2021/04/20 03:14:05;;;;;;;13.88;11.75;;;;;;;13.88;64.50;100633.73;1708726;83;21180;-47
2021/04/20 03:16:34;;;;;;;15.20;11.08;;;;;;;13.88;64.56;100638.09;1708102;83;21608;-47
2021/04/20 03:19:05;;;;;;;15.85;12.50;;;;;;;13.88;64.53;100636.78;1701923;83;21156;-47
2021/04/20 03:21:32;;;;;;;14.80;13.18;;;;;;;13.88;64.61;100644.63;1711214;83;21196;-47
2021/04/20 03:24:02;;;;;;;13.62;12.10;;;;;;;13.90;64.75;100646.73;1694941;83;21169;-47
2021/04/20 03:26:37;;;;;;;13.95;12.35;;;;;;;13.93;64.73;100647.91;1690894;83;21156;-47
2021/04/20 03:29:08;;;;;;;13.88;12.37;;;;;;;13.90;64.76;100649.35;1696643;83;21169;-47
2021/04/20 03:31:38;;;;;;;;;;;;;;;13.88;64.90;100641.57;1716991;82;21185;-47
2021/04/20 03:34:29;;;;;;;13.88;12.20;;;;;;;13.88;64.98;100649.86;1725138;82;20145;-47
2021/04/20 03:37:13;;;;;;;14.87;12.03;;;;;;;13.88;64.96;100657.27;1689727;84;21255;-47
2021/04/20 03:39:49;;;;;;;13.98;11.97;;;;;;;13.90;64.97;100654.59;1810108;79;22964;-48
2021/04/20 03:42:20;;;;;;;14.98;12.35;;;;;;;13.86;65.04;100650.37;1776879;80;21156;-48
2021/04/20 03:44:52;;;;;;;13.22;11.35;;;;;;;13.87;65.05;100658.16;1776826;80;21188;-48
2021/04/20 03:47:27;;;;;;;13.35;11.73;;;;;;;13.89;64.93;100659.41;1728907;82;21381;-48
2021/04/20 03:49:55;;;;;;;14.83;11.35;;;;;;;13.87;65.02;100660.77;1729839;82;21199;-48
2021/04/20 03:52:28;;;;;;;12.33;11.03;;;;;;;13.85;64.93;100662.59;1734025;82;21136;-48
2021/04/20 03:54:56;;;;;;;13.83;11.30;;;;;;;13.81;65.12;100660.14;1690813;83;21231;-48
2021/04/20 03:57:25;;;;;;;13.98;11.78;;;;;;;13.80;65.23;100655.84;1698792;83;21673;-47
2021/04/20 03:59:52;;;;;;;12.63;10.93;;;;;;;13.78;65.11;100654.59;1698882;83;21160;-48
2021/04/20 04:02:20;;;;;;;15.20;11.60;;;;;;;13.74;65.16;100654.30;1703028;83;21198;-48
2021/04/20 04:04:48;;;;;;;14.45;11.25;;;;;;;13.75;65.26;100655.13;1700507;83;21203;-47
2021/04/20 04:07:18;;;;;;;12.95;11.30;;;;;;;13.77;65.14;100649.39;1704099;83;21335;-47
2021/04/20 04:09:46;;;;;;;13.45;11.12;;;;;;;13.76;65.16;100658.16;1701974;83;21161;-47
2021/04/20 04:12:14;;;;;;;12.90;11.57;;;;;;;13.74;65.29;100652.14;1625797;88;21206;-48
2021/04/20 04:14:42;;;;;;;13.53;11.68;;;;;;;13.76;65.49;100652.94;1630585;87;21176;-48
2021/04/20 04:17:19;;;;;;;12.55;10.75;;;;;;;13.84;65.38;100649.58;1809465;79;22434;-48
2021/04/20 04:19:49;;;;;;;14.15;11.83;;;;;;;13.80;65.21;100651.91;1735835;80;21168;-48
2021/04/20 04:22:25;;;;;;;11.90;10.65;;;;;;;13.76;65.24;100656.86;1770729;80;21171;-48
2021/04/20 04:24:59;;;;;;;11.65;10.18;;;;;;;13.72;65.47;100652.64;1778311;80;21128;-48
2021/04/20 04:27:33;;;;;;;11.43;9.95;;;;;;;13.70;65.57;100650.54;1782266;80;21171;-49
2021/04/20 04:30:08;;;;;;;11.45;10.25;;;;;;;13.65;65.55;100645.92;1779893;80;21151;-49
2021/04/20 04:32:37;;;;;;;13.40;11.33;;;;;;;13.60;65.76;100643.46;1752195;81;21262;-48
2021/04/20 04:35:06;;;;;;;16.23;11.22;;;;;;;13.59;65.94;100647.45;1756910;81;21152;-48
2021/04/20 04:37:36;;;;;;;13.15;11.85;;;;;;;13.57;65.94;100645.34;1756137;81;21160;-49
2021/04/20 04:40:06;;;;;;;13.45;12.05;;;;;;;13.56;65.96;100650.19;1754935;81;21177;-47
2021/04/20 04:42:35;;;;;;;14.35;11.83;;;;;;;13.55;65.99;100648.02;1752782;81;21169;-47
2021/04/20 04:45:08;;;;;;;12.65;11.40;;;;;;;13.56;65.98;100647.09;1753114;81;21593;-47
2021/04/20 04:47:38;;;;;;;14.07;11.08;;;;;;;13.57;65.94;100651.43;1753140;81;21586;-47
2021/04/20 04:50:08;;;;;;;12.47;11.18;;;;;;;13.61;65.90;100650.41;1749195;81;21145;-49
2021/04/20 04:52:38;;;;;;;12.82;11.48;;;;;;;13.62;65.60;100653.89;1752332;81;21181;-48
2021/04/20 04:55:08;;;;;;;13.22;11.83;;;;;;;13.59;65.55;100652.23;1749496;81;21141;-47
2021/04/20 04:57:36;;;;;;;13.13;11.68;;;;;;;13.60;65.66;100658.31;1753176;81;21617;-49
2021/04/20 05:00:10;;;;;;;13.90;12.00;;;;;;;13.60;65.84;100655.70;1750633;81;21588;-47
2021/04/20 05:02:39;;;;;;;13.03;11.70;;;;;;;13.61;66.04;100660.01;1749637;81;21240;-49
2021/04/20 05:05:10;;;;;;;13.25;11.88;;;;;;;13.60;66.09;100648.69;1756185;81;21295;-48
2021/04/20 05:07:38;;;;;;;14.38;10.93;;;;;;;13.60;66.04;100653.09;1756462;81;21617;-49
2021/04/20 05:10:12;;;;;;;13.05;11.20;;;;;;;13.60;66.17;100649.17;1754096;81;21181;-47
2021/04/20 05:12:40;;;;;;;14.05;11.40;;;;;;;13.61;66.17;100646.94;1753645;81;21165;-48
2021/04/20 05:15:12;;;;;;;13.62;11.93;;;;;;;13.61;66.06;100644.32;1751974;81;21181;-51
2021/04/20 05:17:40;;;;;;;16.10;13.35;;;;;;;13.62;65.96;100642.12;1753624;81;21205;-48
2021/04/20 05:20:20;;;;;;;23.87;16.77;;;;;;;13.62;65.91;100647.35;1740055;81;21193;-49
2021/04/20 05:22:55;;;;;;;17.65;15.23;;;;;;;13.68;65.79;100651.88;1774474;79;22257;-49
2021/04/20 05:25:24;;;;;;;18.17;13.35;;;;;;;13.65;65.81;100648.53;1740356;82;21326;-48
2021/04/20 05:27:52;;;;;;;20.05;15.63;;;;;;;13.67;65.67;100645.41;1737907;82;21191;-48
2021/04/20 05:30:21;;;;;;;15.83;12.75;;;;;;;13.67;65.67;100648.02;1738641;82;21160;-47
2021/04/20 05:32:52;;;;;;;13.53;12.13;;;;;;;13.68;65.79;100658.89;1737279;82;21149;-47
2021/04/20 05:35:21;;;;;;;20.35;14.98;;;;;;;13.71;65.77;100664.00;1740182;82;21156;-47
2021/04/20 05:37:50;;;;;;;16.10;12.90;;;;;;;13.74;65.70;100663.91;1741297;82;21286;-47
2021/04/20 05:40:24;;;;;;;14.90;12.50;;;;;;;13.74;65.61;100666.52;1733529;82;21140;-47
2021/04/20 05:42:54;;;;;;;14.65;11.25;;;;;;;13.75;65.50;100669.52;1744129;82;21181;-47
2021/04/20 05:45:22;;;;;;;12.53;11.20;;;;;;;13.76;65.41;100668.63;1730416;83;21567;-47
2021/04/20 05:47:52;;;;;;;13.72;11.43;;;;;;;13.78;65.50;100670.28;1725349;83;21325;-49
2021/04/20 05:50:28;;;;;;;12.55;10.32;;;;;;;13.84;65.35;100673.12;1725298;83;21178;-48
2021/04/20 05:53:01;;;;;;;11.48;10.28;;;;;;;13.94;65.04;100666.64;1780917;79;22200;-48
2021/04/20 05:55:31;;;;;;;12.23;10.48;;;;;;;13.93;64.76;100668.84;1744613;82;21183;-47
2021/04/20 05:57:59;;;;;;;11.88;10.68;;;;;;;13.91;64.57;100666.73;1732530;82;21133;-47
2021/04/20 06:00:27;;;;;;;14.03;10.78;;;;;;;13.91;64.57;100665.43;1711242;82;21168;-47
2021/04/20 06:02:56;;;;;;;14.33;11.05;;;;;;;13.90;64.49;100670.28;1741135;82;21668;-47
2021/04/20 06:05:27;;;;;;;10.93;9.50;;;;;;;13.84;64.57;100670.50;1734491;82;21279;-47
2021/04/20 06:08:01;;;;;;;11.12;9.40;;;;;;;13.83;64.62;100674.02;1734497;82;21298;-48
2021/04/20 06:10:32;;;;;;;12.07;10.43;;;;;;;13.84;64.71;100674.43;1688471;84;21345;-47
2021/04/20 06:13:02;;;;;;;13.08;11.70;;;;;;;13.84;64.71;100680.52;1665921;84;21289;-47
2021/04/20 06:15:31;;;;;;;12.43;11.12;;;;;;;13.84;64.65;100673.98;1650082;85;21227;-47
2021/04/20 06:17:59;;;;;;;11.73;10.45;;;;;;;13.83;64.76;100677.94;1685386;84;21183;-47
2021/04/20 06:20:28;;;;;;;12.50;10.35;;;;;;;13.82;64.77;100677.55;1676074;84;21167;-47
2021/04/20 06:22:57;;;;;;;11.85;9.88;;;;;;;13.81;64.85;100674.52;1651131;85;21243;-47
2021/04/20 06:25:25;;;;;;;14.93;10.20;;;;;;;13.80;64.99;100680.68;1688545;84;21176;-48
2021/04/20 06:27:54;;;;;;;11.60;10.40;;;;;;;13.86;64.88;100683.07;1665564;84;21247;-48
2021/04/20 06:30:22;;;;;;;11.95;10.05;;;;;;;13.86;64.64;100679.15;1685885;84;21175;-49
2021/04/20 06:32:50;;;;;;;13.35;11.33;;;;;;;13.87;64.52;100678.22;1687384;84;21219;-49
2021/04/20 06:35:21;;;;;;;14.13;11.43;;;;;;;13.84;64.62;100680.97;1686679;84;21175;-48
2021/04/20 06:37:51;;;;;;;13.50;12.10;;;;;;;13.82;64.74;100685.40;1683104;84;21172;-48
2021/04/20 06:40:41;;;;;;;13.65;11.65;;;;;;;13.76;65.05;100683.01;1675740;85;21176;-49
2021/04/20 06:43:13;;;;;;;13.25;11.63;;;;;;;13.74;65.22;100684.83;1688480;84;21224;-48
2021/04/20 06:45:49;;;;;;;13.48;11.75;;;;;;;13.74;65.55;100688.30;1688474;84;21160;-49
2021/04/20 06:48:43;;;;;;;13.08;11.53;;;;;;;13.76;65.62;100690.85;1716974;82;21181;-47
2021/04/20 06:51:31;;;;;;;12.03;10.53;;;;;;;13.79;65.48;100682.88;1727173;82;21165;-49
2021/04/20 06:54:10;;;;;;;16.02;12.25;;;;;;;13.80;65.26;100684.60;1714392;82;21723;-47
2021/04/20 06:56:40;;;;;;;13.43;11.38;;;;;;;13.80;65.24;100693.75;1707835;82;21514;-47
2021/04/20 06:59:23;;;;;;;10.93;9.83;;;;;;;13.75;65.42;100688.69;1734614;82;21569;-48
2021/04/20 07:02:02;;;;;;;12.53;10.48;;;;;;;13.76;65.24;100680.39;1724080;82;21197;-48
2021/04/20 07:04:44;;;;;;;13.15;10.72;;;;;;;13.79;65.47;100678.52;1729826;82;21165;-48
2021/04/20 07:07:52;;;;;;;13.00;11.60;;;;;;;13.87;65.29;100679.53;1650700;86;21209;-48
2021/04/20 07:10:36;;;;;;;11.83;9.80;;;;;;;13.95;64.98;100670.95;1646050;85;21188;-47
2021/04/20 07:13:13;;;;;;;13.50;10.63;;;;;;;14.09;64.39;100670.01;1803112;79;22781;-47
2021/04/20 07:15:57;;;;;;;11.20;10.00;;;;;;;14.05;64.18;100669.73;1742725;81;21163;-47
2021/04/20 07:19:23;;;;;;;13.65;10.32;;;;;;;14.05;64.05;100664.49;1741745;81;21171;-47
2021/04/20 07:22:40;;;;;;;13.05;10.88;;;;;;;14.08;64.19;100669.59;1741616;81;21658;-47
2021/04/20 07:25:51;;;;;;;12.10;10.88;;;;;;;14.14;64.27;100677.22;1740457;81;21308;-47
2021/04/20 07:29:07;;;;;;;12.03;10.55;;;;;;;14.27;63.97;100671.92;1772136;79;22339;-48
2021/04/20 07:32:02;;;;;;;11.65;10.20;;;;;;;14.25;63.75;100672.44;1740438;82;21156;-48
2021/04/20 07:34:42;;;;;;;12.90;10.85;;;;;;;14.27;63.77;100673.23;1734752;82;21149;-49
2021/04/20 07:37:35;;;;;;;12.65;11.35;;;;;;;14.33;63.77;100669.11;1705001;83;21576;-48
2021/04/20 07:40:35;;;;;;;13.55;11.50;;;;;;;14.38;63.48;100667.18;1739857;82;21584;-48
2021/04/20 07:43:24;;;;;;;11.60;10.32;;;;;;;14.41;63.32;100665.73;1741486;82;21318;-48
2021/04/20 07:46:14;;;;;;;13.98;11.30;;;;;;;14.44;63.02;100668.25;1740994;82;21215;-48
2021/04/20 07:48:57;;;;;;;13.65;12.03;;;;;;;14.40;62.98;100667.97;1740098;82;21557;-48
2021/04/20 07:52:04;;;;;;;14.73;12.18;;;;;;;14.38;63.06;100667.18;1743265;82;21144;-48
2021/04/20 07:55:11;;;;;;;14.80;12.28;;;;;;;14.36;62.54;100661.59;1728376;82;21581;-47
2021/04/20 07:57:47;;;;;;;12.95;10.43;;;;;;;14.25;63.08;100665.90;1739499;82;21564;-47
2021/04/20 08:00:31;;;;;;;15.05;11.25;;;;;;;14.26;63.36;100665.45;1730346;82;21152;-47
2021/04/20 08:03:11;;;;;;;15.35;12.80;;;;;;;14.29;63.21;100663.59;1649131;86;21219;-47
2021/04/20 08:05:58;;;;;;;13.78;12.35;;;;;;;14.27;62.89;100668.00;1645380;86;21171;-47
2021/04/20 08:08:44;;;;;;;13.78;11.90;;;;;;;14.34;62.99;100661.63;1810143;79;22678;-47
2021/04/20 08:11:22;;;;;;;15.68;12.05;;;;;;;14.34;63.18;100665.56;1778103;80;21132;-47
2021/04/20 08:14:10;;;;;;;16.35;12.28;;;;;;;14.36;62.99;100672.07;1749333;80;21182;-47
2021/04/20 08:16:49;;;;;;;14.87;11.90;;;;;;;14.40;62.76;100671.89;1778596;80;21617;-47
2021/04/20 08:19:30;;;;;;;12.68;11.20;;;;;;;14.42;62.85;100672.69;1775722;80;21132;-47
2021/04/20 08:21:58;;;;;;;13.38;12.00;;;;;;;14.40;62.51;100671.89;1779374;80;21612;-48
2021/04/20 08:24:58;;;;;;;12.18;10.88;;;;;;;14.38;62.21;100672.41;1774974;80;21572;-47
2021/04/20 08:27:49;;;;;;;12.37;11.05;;;;;;;14.35;62.87;100679.51;1775815;80;21601;-49
2021/04/20 08:30:55;;;;;;;11.90;10.70;;;;;;;14.37;62.83;100677.23;1765237;80;21159;-47
2021/04/20 08:33:32;;;;;;;13.70;11.20;;;;;;;14.46;63.10;100671.66;1815176;79;22980;-50
2021/04/20 08:36:03;;;;;;;13.40;12.00;;;;;;;14.44;63.06;100678.72;1776274;80;21109;-48
2021/04/20 08:38:58;;;;;;;12.82;11.45;;;;;;;14.44;62.69;100677.41;1771299;80;21156;-49
2021/04/20 08:41:50;;;;;;;13.30;11.68;;;;;;;14.42;62.87;100681.86;1727734;82;21706;-50
2021/04/20 08:44:37;;;;;;;13.15;11.75;;;;;;;14.42;62.52;100679.69;1716149;82;21253;-50
2021/04/20 08:47:25;;;;;;;14.03;11.95;;;;;;;14.40;62.59;100682.38;1728049;82;21136;-50
2021/04/20 08:49:58;;;;;;;15.95;12.45;;;;;;;14.37;62.53;100685.09;1722868;82;21316;-49
2021/04/20 08:52:50;;;;;;;13.55;12.13;;;;;;;14.34;62.78;100689.12;1727742;82;21185;-50
2021/04/20 08:55:55;;;;;;;13.78;12.18;;;;;;;14.35;63.38;100688.67;1722554;82;21272;-49
2021/04/20 08:59:25;;;;;;;14.18;12.43;;;;;;;14.40;62.92;100687.60;1813770;79;23071;-50
2021/04/20 09:02:26;;;;;;;16.02;12.88;;;;;;;14.39;62.83;100690.25;1671742;86;21168;-49
2021/04/20 09:05:22;;;;;;;18.98;13.78;;;;;;;14.43;62.76;100690.09;1700391;84;21159;-50
2021/04/20 09:08:15;;;;;;;15.95;12.33;;;;;;;14.44;62.69;100689.19;1700141;84;21640;-50
2021/04/20 09:11:10;;;;;;;15.43;13.85;;;;;;;14.52;62.83;100687.13;1827446;77;23004;-50
2021/04/20 09:13:46;;;;;;;19.50;14.47;;;;;;;14.51;63.13;100690.64;1810489;78;21133;-50
2021/04/20 09:16:20;;;;;;;16.23;14.53;;;;;;;14.58;63.34;100690.81;1810418;78;21137;-50
2021/04/20 09:18:48;;;;;;;15.28;13.68;;;;;;;14.62;62.35;100693.70;1760459;81;21141;-50
2021/04/20 09:21:24;;;;;;;16.07;12.68;;;;;;;14.66;63.00;100688.74;1754023;80;21140;-50
2021/04/20 09:24:16;;;;;;;14.68;13.05;;;;;;;14.76;63.23;100694.91;1762951;80;21140;-50
2021/04/20 09:27:16;;;;;;;13.68;12.18;;;;;;;14.84;63.07;100700.73;1762932;80;21168;-49
2021/04/20 09:29:51;;;;;;;15.83;13.60;;;;;;;14.91;63.45;100699.55;1763602;80;21591;-49
2021/04/20 09:32:21;;;;;;;16.20;14.25;;;;;;;15.00;63.15;100705.26;1754097;80;21269;-51
2021/04/20 09:34:51;;;;;;;15.63;14.03;;;;;;;15.09;63.09;100707.97;1763413;80;21173;-49
2021/04/20 09:37:19;;;;;;;17.40;14.35;;;;;;;15.13;62.89;100709.09;1756635;80;21181;-50
2021/04/20 09:39:52;;;;;;;16.77;14.05;;;;;;;15.20;63.06;100704.46;1745705;80;21135;-50
2021/04/20 09:42:19;;;;;;;15.98;14.25;;;;;;;15.24;62.46;100712.59;1759165;80;21152;-50
2021/04/20 09:45:12;;;;;;;18.57;16.32;;;;;;;15.26;62.67;100714.69;1716621;81;21200;-50
2021/04/20 09:48:02;;;;;;;22.65;18.23;;;;;;;15.29;62.05;100710.16;1763087;80;21182;-50
2021/04/20 09:51:04;;;;;;;20.87;18.67;;;;;;;15.36;61.34;100702.90;1755737;79;28920;-50
2021/04/20 09:54:07;;;;;;;17.82;15.93;;;;;;;15.34;61.20;100706.05;1728234;82;21270;-49
2021/04/20 09:56:48;;;;;;;21.00;17.98;;;;;;;15.36;60.75;100708.14;1739055;82;21161;-48
2021/04/20 09:59:42;;;;;;;18.73;16.35;;;;;;;15.30;60.38;100704.47;1736581;82;21120;-49
2021/04/20 10:02:52;;;;;;;20.77;18.67;;;;;;;15.23;61.05;100705.63;1737761;82;21133;-48
2021/04/20 10:05:35;;;;;;;21.62;17.82;;;;;;;15.24;61.37;100711.28;1682648;84;21237;-48
2021/04/20 10:08:34;;;;;;;20.35;17.32;;;;;;;15.29;60.94;100710.65;1691792;84;21188;-48
2021/04/20 10:11:35;;;;;;;19.67;17.57;;;;;;;15.28;61.06;100712.41;1691760;84;21200;-49
2021/04/20 10:14:41;;;;;;;21.48;18.30;;;;;;;15.32;61.08;100717.05;1694222;84;21223;-48
2021/04/20 10:17:16;;;;;;;19.32;17.30;;;;;;;15.33;60.77;100719.61;1686680;84;21176;-49
2021/04/20 10:19:56;;;;;;;23.95;19.57;;;;;;;15.38;61.18;100722.04;1701261;84;21707;-49
2021/04/20 10:22:48;;;;;;;20.15;16.93;;;;;;;15.47;61.22;100708.59;1771443;79;23095;-49
2021/04/20 10:25:50;;;;;;;23.05;18.67;;;;;;;15.54;60.88;100713.95;1768575;79;23135;-49
2021/04/20 10:28:44;;;;;;;19.70;17.57;;;;;;;15.52;60.33;100715.78;1733449;82;21565;-50
2021/04/20 10:31:19;;;;;;;17.45;15.43;;;;;;;15.56;60.96;100725.70;1729919;82;21151;-50
2021/04/20 10:33:50;;;;;;;18.87;16.60;;;;;;;15.66;60.36;100727.84;1731864;82;21143;-49
2021/04/20 10:36:23;;;;;;;21.27;17.07;;;;;;;15.69;60.41;100721.17;1661154;85;21226;-49
2021/04/20 10:38:53;;;;;;;20.40;17.20;;;;;;;15.79;60.25;100724.23;1636750;86;21186;-50
2021/04/20 10:41:28;;;;;;;19.57;17.48;;;;;;;15.85;59.39;100726.14;1623727;87;21206;-50
2021/04/20 10:44:04;;;;;;;20.10;15.55;;;;;;;15.97;59.43;100720.34;1770329;79;23091;-49
2021/04/20 10:46:32;;;;;;;17.50;15.63;;;;;;;16.00;59.09;100721.54;1727873;82;21648;-49
2021/04/20 10:49:00;;;;;;;16.70;14.60;;;;;;;16.03;58.62;100721.39;1725836;82;21176;-49
2021/04/20 10:51:38;;;;;;;19.00;15.68;;;;;;;16.07;58.64;100726.06;1735638;82;21148;-50
2021/04/20 10:54:08;;;;;;;17.70;15.60;;;;;;;16.12;58.50;100723.61;1706118;83;21201;-49
2021/04/20 10:56:36;;;;;;;16.75;15.08;;;;;;;16.21;58.88;100717.97;1700197;84;21610;-49
2021/04/20 10:59:08;;;;;;;18.95;16.23;;;;;;;16.29;58.11;100722.41;1670994;85;21202;-50
2021/04/20 11:01:38;;;;;;;17.30;15.35;;;;;;;16.34;58.17;100722.20;1686913;84;21770;-50
2021/04/20 11:04:07;;;;;;;17.50;14.53;;;;;;;16.42;57.84;100732.34;1649666;85;21148;-49
2021/04/20 11:07:19;;;;;;;17.50;15.65;;;;;;;16.46;57.80;100733.45;1644220;84;21179;-50
2021/04/20 11:10:05;;;;;;;17.77;15.88;;;;;;;16.63;57.92;100735.33;1806527;79;22374;-49
2021/04/20 11:12:33;;;;;;;18.50;16.57;;;;;;;16.64;58.06;100735.70;1791623;80;21161;-49
2021/04/20 11:15:03;;;;;;;16.60;14.90;;;;;;;16.72;57.64;100733.56;1790074;80;21298;-50
2021/04/20 11:17:55;;;;;;;15.80;14.13;;;;;;;16.81;57.62;100737.08;1777922;80;21114;-50
2021/04/20 11:20:43;;;;;;;16.60;14.35;;;;;;;16.92;57.24;100734.32;1679851;84;21214;-49
2021/04/20 11:23:29;;;;;;;15.78;14.18;;;;;;;17.04;56.93;100744.73;1685459;83;21150;-49
2021/04/20 11:26:10;;;;;;;19.20;14.93;;;;;;;17.10;56.33;100744.43;1682169;84;21124;-50
2021/04/20 11:28:56;;;;;;;18.25;15.78;;;;;;;17.19;56.27;100745.28;1802886;79;22991;-49
2021/04/20 11:31:40;;;;;;;16.60;14.60;;;;;;;17.20;55.85;100740.42;1778793;80;21212;-50
2021/04/20 11:34:18;;;;;;;17.80;14.43;;;;;;;17.25;56.04;100750.23;1779356;80;21164;-49
2021/04/20 11:37:04;;;;;;;16.52;14.90;;;;;;;17.34;55.99;100752.42;1780778;80;21139;-50
2021/04/20 11:39:39;;;;;;;17.55;15.60;;;;;;;17.41;55.56;100747.27;1641435;86;21283;-49
2021/04/20 11:42:14;;;;;;;16.73;15.03;;;;;;;17.50;54.95;100749.91;1691485;84;21162;-50
2021/04/20 11:44:56;;;;;;;20.05;16.27;;;;;;;17.58;54.69;100755.63;1694144;84;21183;-50
2021/04/20 11:47:26;;;;;;;16.77;14.98;;;;;;;17.60;53.98;100749.82;1692842;84;21124;-48
2021/04/20 11:50:09;;;;;;;15.68;12.93;;;;;;;17.62;54.11;100744.05;1696362;83;21227;-47